createdAt,value
2018-02-20T00:01:06.529Z,29.45
2018-02-20T00:03:32.718Z,28.02
2018-02-20T00:05:58.934Z,27.77
2018-02-20T00:08:25.161Z,28.15
2018-02-20T00:10:51.453Z,30.55
2018-02-20T00:13:18.059Z,29.58
2018-02-20T00:15:44.267Z,29.65
2018-02-20T00:18:10.686Z,28.55
2018-02-20T00:20:36.900Z,27.50
2018-02-20T00:23:03.190Z,29.85
2018-02-20T00:25:29.442Z,29.73
2018-02-20T00:27:56.007Z,29.90
2018-02-20T00:30:22.286Z,29.42
2018-02-20T00:32:48.597Z,29.87
2018-02-20T00:35:14.856Z,32.20
2018-02-20T00:37:41.070Z,31.85
2018-02-20T00:40:07.274Z,30.90
2018-02-20T00:42:33.531Z,29.08
2018-02-20T00:44:59.800Z,28.95
2018-02-20T00:47:26.060Z,28.48
2018-02-20T00:49:52.328Z,29.55
2018-02-20T00:52:18.511Z,29.15
2018-02-20T00:54:44.715Z,28.70
2018-02-20T00:57:10.939Z,32.10
2018-02-20T00:59:37.158Z,30.75
2018-02-20T01:02:03.383Z,29.48
2018-02-20T01:04:29.647Z,31.15
2018-02-20T01:06:55.888Z,31.00
2018-02-20T01:09:22.097Z,29.65
2018-02-20T01:11:48.322Z,30.75
2018-02-20T01:14:14.595Z,30.15
2018-02-20T01:16:41.584Z,30.85
2018-02-20T01:19:07.802Z,30.42
2018-02-20T01:21:34.016Z,30.17
2018-02-20T01:24:00.589Z,28.25
2018-02-20T01:26:26.813Z,30.60
2018-02-20T01:28:53.029Z,29.58
2018-02-20T01:31:19.216Z,31.33
2018-02-20T01:33:45.474Z,30.00
2018-02-20T01:36:11.675Z,29.05
2018-02-20T01:38:37.913Z,32.70
2018-02-20T01:41:04.140Z,30.17
2018-02-20T01:43:30.331Z,32.97
2018-02-20T01:45:56.534Z,30.75
2018-02-20T01:48:22.792Z,30.25
2018-02-20T01:51:01.163Z,30.35
2018-02-20T01:53:27.421Z,31.40
2018-02-20T01:55:53.711Z,31.85
2018-02-20T01:58:20.287Z,31.85
2018-02-20T02:00:46.548Z,30.90
2018-02-20T02:03:13.247Z,30.77
2018-02-20T02:05:39.441Z,31.73
2018-02-20T02:08:05.727Z,32.47
2018-02-20T02:10:31.938Z,32.95
2018-02-20T02:12:58.197Z,31.37
2018-02-20T02:15:24.395Z,28.62
2018-02-20T02:17:50.588Z,31.50
2018-02-20T02:20:16.835Z,29.65
2018-02-20T02:22:43.240Z,30.90
2018-02-20T02:25:09.886Z,30.60
2018-02-20T02:27:36.132Z,30.75
2018-02-20T02:30:02.380Z,30.50
2018-02-20T02:32:28.705Z,33.13
2018-02-20T02:34:54.887Z,31.90
2018-02-20T02:37:21.160Z,30.90
2018-02-20T02:39:47.418Z,31.05
2018-02-20T02:42:13.618Z,33.80
2018-02-20T02:44:39.883Z,30.17
2018-02-20T02:47:06.060Z,30.60
2018-02-20T02:49:32.252Z,32.45
2018-02-20T02:51:58.467Z,32.72
2018-02-20T02:54:25.080Z,32.03
2018-02-20T02:56:51.303Z,31.08
2018-02-20T02:59:17.542Z,30.80
2018-02-20T03:01:43.795Z,30.20
2018-02-20T03:04:10.179Z,31.52
2018-02-20T03:06:36.405Z,30.10
2018-02-20T03:09:02.688Z,29.70
2018-02-20T03:11:28.947Z,29.10
2018-02-20T03:13:55.160Z,31.70
2018-02-20T03:16:21.347Z,28.95
2018-02-20T03:18:47.608Z,30.70
2018-02-20T03:21:13.837Z,30.90
2018-02-20T03:23:40.049Z,31.25
2018-02-20T03:26:07.653Z,32.53
2018-02-20T03:28:33.847Z,30.15
2018-02-20T03:31:00.094Z,31.23
2018-02-20T03:33:26.627Z,31.15
2018-02-20T03:35:52.809Z,30.90
2018-02-20T03:38:19.055Z,31.85
2018-02-20T03:40:45.701Z,31.48
2018-02-20T03:43:11.920Z,30.88
2018-02-20T03:45:38.129Z,31.70
2018-02-20T03:48:04.358Z,32.47
2018-02-20T03:50:30.610Z,31.48
2018-02-20T03:52:56.850Z,31.02
2018-02-20T03:55:23.092Z,31.10
2018-02-20T03:57:49.303Z,31.58
2018-02-20T04:00:15.506Z,31.77
2018-02-20T04:02:41.718Z,31.33
2018-02-20T04:05:07.929Z,31.70
2018-02-20T04:07:34.114Z,32.55
2018-02-20T04:10:00.680Z,29.65
2018-02-20T04:12:26.886Z,31.25
2018-02-20T04:14:53.097Z,32.33
2018-02-20T04:17:19.333Z,30.08
2018-02-20T04:19:45.603Z,29.75
2018-02-20T04:22:11.874Z,32.72
2018-02-20T04:24:38.118Z,32.10
2018-02-20T04:27:04.326Z,32.28
2018-02-20T04:29:30.896Z,31.45
2018-02-20T04:31:57.192Z,32.67
2018-02-20T04:34:23.739Z,30.80
2018-02-20T04:36:49.918Z,31.83
2018-02-20T04:39:16.170Z,32.00
2018-02-20T04:41:42.419Z,32.55
2018-02-20T04:44:08.600Z,34.00
2018-02-20T04:46:34.898Z,32.65
2018-02-20T04:49:01.075Z,32.63
2018-02-20T04:51:28.464Z,32.80
2018-02-20T04:53:55.093Z,32.17
2018-02-20T04:56:21.673Z,33.47
2018-02-20T04:58:47.872Z,31.95
2018-02-20T05:01:14.450Z,34.78
2018-02-20T05:03:40.753Z,32.03
2018-02-20T05:06:07.008Z,36.00
2018-02-20T05:08:33.223Z,33.67
2018-02-20T05:10:59.452Z,31.25
2018-02-20T05:13:25.656Z,30.08
2018-02-20T05:15:51.972Z,32.95
2018-02-20T05:18:18.180Z,31.73
2018-02-20T05:20:44.748Z,35.13
2018-02-20T05:23:10.956Z,33.40
2018-02-20T05:25:37.550Z,32.08
2018-02-20T05:28:03.779Z,34.10
2018-02-20T05:30:30.004Z,33.55
2018-02-20T05:32:56.241Z,31.95
2018-02-20T05:35:22.790Z,32.65
2018-02-20T05:37:48.984Z,32.17
2018-02-20T05:40:15.155Z,32.33
2018-02-20T05:42:41.693Z,32.28
2018-02-20T05:45:07.938Z,33.38
2018-02-20T05:47:34.484Z,34.08
2018-02-20T05:50:00.709Z,31.77
2018-02-20T05:52:26.910Z,34.03
2018-02-20T05:54:53.122Z,34.65
2018-02-20T05:57:19.462Z,31.10
2018-02-20T05:59:45.701Z,33.17
2018-02-20T06:02:12.363Z,34.42
2018-02-20T06:04:38.585Z,32.42
2018-02-20T06:07:04.728Z,32.70
2018-02-20T06:09:30.980Z,30.25
2018-02-20T06:11:57.173Z,32.50
2018-02-20T06:14:23.378Z,32.13
2018-02-20T06:16:49.644Z,31.55
2018-02-20T06:19:15.830Z,31.45
2018-02-20T06:21:42.020Z,31.40
2018-02-20T06:24:08.305Z,32.67
2018-02-20T06:26:34.493Z,30.25
2018-02-20T06:29:00.721Z,31.62
2018-02-20T06:31:27.253Z,33.20
2018-02-20T06:33:53.521Z,29.35
2018-02-20T06:36:20.112Z,30.67
2018-02-20T06:38:46.330Z,33.03
2018-02-20T06:41:12.686Z,30.15
2018-02-20T06:43:39.061Z,31.15
2018-02-20T06:46:05.635Z,31.25
2018-02-20T06:48:31.907Z,33.67
2018-02-20T06:50:58.454Z,30.70
2018-02-20T06:53:24.714Z,31.12
2018-02-20T06:55:50.956Z,32.10
2018-02-20T06:58:17.130Z,31.58
2018-02-20T07:00:43.724Z,31.92
2018-02-20T07:03:09.914Z,30.95
2018-02-20T07:05:36.165Z,32.40
2018-02-20T07:08:02.449Z,33.25
2018-02-20T07:10:28.711Z,30.95
2018-02-20T07:12:54.938Z,32.20
2018-02-20T07:15:21.164Z,29.48
2018-02-20T07:17:47.396Z,30.73
2018-02-20T07:20:13.633Z,30.33
2018-02-20T07:22:40.747Z,30.35
2018-02-20T07:25:06.949Z,28.90
2018-02-20T07:27:33.176Z,30.45
2018-02-20T07:29:59.785Z,31.20
2018-02-20T07:32:25.997Z,33.05
2018-02-20T07:34:52.270Z,32.72
2018-02-20T07:37:18.981Z,32.70
2018-02-20T07:39:45.299Z,33.25
2018-02-20T07:42:11.635Z,30.40
2018-02-20T07:44:37.877Z,29.60
2018-02-20T07:47:04.118Z,31.25
2018-02-20T07:49:30.405Z,30.73
2018-02-20T07:51:56.647Z,30.88
2018-02-20T07:54:22.999Z,31.00
2018-02-20T07:56:49.337Z,31.83
2018-02-20T07:59:15.535Z,32.22
2018-02-20T08:01:41.777Z,29.90
2018-02-20T08:04:07.960Z,30.55
2018-02-20T08:06:34.199Z,30.73
2018-02-20T08:09:00.853Z,32.38
2018-02-20T08:11:27.156Z,30.30
2018-02-20T08:13:53.389Z,31.80
2018-02-20T08:16:19.671Z,28.92
2018-02-20T08:18:45.896Z,32.35
2018-02-20T08:21:12.095Z,32.25
2018-02-20T08:23:38.565Z,30.15
2018-02-20T08:26:04.846Z,29.50
2018-02-20T08:28:31.049Z,29.63
2018-02-20T08:30:57.259Z,27.62
2018-02-20T08:33:23.845Z,26.12
2018-02-20T08:35:50.200Z,24.55
2018-02-20T08:38:16.402Z,25.15
2018-02-20T08:40:42.762Z,30.50
2018-02-20T08:43:09.014Z,27.58
2018-02-20T08:45:35.607Z,24.95
2018-02-20T08:48:01.843Z,23.25
2018-02-20T08:50:28.071Z,25.33
2018-02-20T08:52:54.371Z,24.10
2018-02-20T08:55:20.586Z,25.42
2018-02-20T08:57:46.913Z,26.48
2018-02-20T09:00:13.162Z,26.65
2018-02-20T09:02:39.453Z,26.02
2018-02-20T09:05:06.023Z,25.25
2018-02-20T09:07:32.251Z,26.08
2018-02-20T09:09:58.492Z,26.02
2018-02-20T09:12:24.733Z,24.80
2018-02-20T09:14:50.958Z,28.15
2018-02-20T09:17:17.199Z,26.75
2018-02-20T09:19:43.476Z,29.33
2018-02-20T09:22:09.790Z,34.28
2018-02-20T09:24:36.021Z,32.45
2018-02-20T09:27:02.767Z,30.88
2018-02-20T09:29:29.393Z,30.50
2018-02-20T09:31:55.984Z,28.38
2018-02-20T09:34:22.197Z,36.33
2018-02-20T09:36:48.396Z,30.05
2018-02-20T09:39:15.364Z,27.50
2018-02-20T09:41:41.639Z,26.83
2018-02-20T09:44:07.837Z,27.87
2018-02-20T09:46:34.116Z,27.17
2018-02-20T09:49:00.743Z,27.52
2018-02-20T09:51:27.368Z,27.67
2018-02-20T09:53:53.625Z,28.33
2018-02-20T09:56:20.224Z,26.35
2018-02-20T09:58:46.435Z,30.00
2018-02-20T10:01:12.747Z,28.77
2018-02-20T10:03:38.974Z,27.15
2018-02-20T10:06:05.296Z,26.15
2018-02-20T10:08:31.560Z,29.35
2018-02-20T10:10:57.763Z,26.05
2018-02-20T10:13:24.263Z,26.73
2018-02-20T10:15:50.856Z,27.70
2018-02-20T10:18:17.135Z,26.92
2018-02-20T10:20:43.864Z,27.70
2018-02-20T10:23:11.248Z,28.02
2018-02-20T10:25:37.449Z,28.30
2018-02-20T10:28:04.075Z,26.95
2018-02-20T10:30:30.391Z,28.80
2018-02-20T10:32:56.741Z,26.33
2018-02-20T10:35:23.380Z,27.05
2018-02-20T10:37:49.989Z,25.25
2018-02-20T10:40:16.219Z,28.62
2018-02-20T10:42:42.572Z,26.08
2018-02-20T10:45:08.801Z,27.60
2018-02-20T10:47:35.087Z,25.95
2018-02-20T10:50:01.266Z,25.92
2018-02-20T10:52:27.547Z,26.98
2018-02-20T10:54:53.798Z,27.15
2018-02-20T10:57:20.019Z,27.70
2018-02-20T10:59:46.222Z,27.00
2018-02-20T11:02:12.539Z,27.10
2018-02-20T11:04:38.731Z,27.35
2018-02-20T11:07:05.382Z,30.02
2018-02-20T11:09:31.600Z,24.60
2018-02-20T11:11:58.243Z,24.90
2018-02-20T11:14:25.282Z,45.95
2018-02-20T11:16:51.973Z,27.58
2018-02-20T11:19:18.087Z,25.65
2018-02-20T11:21:44.773Z,23.15
2018-02-20T11:24:11.027Z,24.10
2018-02-20T11:26:37.585Z,23.08
2018-02-20T11:29:03.820Z,24.60
2018-02-20T11:31:30.049Z,21.92
2018-02-20T11:33:56.246Z,21.35
2018-02-20T11:36:22.760Z,21.77
2018-02-20T11:38:49.384Z,20.95
2018-02-20T11:41:15.662Z,20.52
2018-02-20T11:43:41.908Z,17.65
2018-02-20T11:46:08.165Z,19.60
2018-02-20T11:48:34.392Z,19.65
2018-02-20T11:51:00.649Z,19.15
2018-02-20T11:53:26.852Z,20.58
2018-02-20T11:55:53.068Z,18.73
2018-02-20T11:58:19.293Z,19.87
2018-02-20T12:00:45.517Z,19.73
2018-02-20T12:03:11.812Z,18.98
2018-02-20T12:05:38.090Z,18.50
2018-02-20T12:08:04.376Z,18.40
2018-02-20T12:10:30.606Z,19.17
2018-02-20T12:12:57.103Z,18.10
2018-02-20T12:15:23.334Z,21.67
2018-02-20T12:17:49.599Z,24.02
2018-02-20T12:20:15.903Z,27.33
2018-02-20T12:22:42.545Z,18.75
2018-02-20T12:25:09.141Z,22.80
2018-02-20T12:27:35.387Z,20.95
2018-02-20T12:30:01.736Z,24.17
2018-02-20T12:32:27.921Z,42.42
2018-02-20T12:34:54.112Z,27.60
2018-02-20T12:37:20.330Z,32.20
2018-02-20T12:39:46.571Z,20.50
2018-02-20T12:42:12.778Z,21.20
2018-02-20T12:44:39.447Z,24.40
2018-02-20T12:47:05.690Z,21.80
2018-02-20T12:49:31.892Z,27.37
2018-02-20T12:51:58.203Z,21.87
2018-02-20T12:54:25.177Z,21.75
2018-02-20T12:56:51.394Z,28.92
2018-02-20T12:59:17.682Z,23.83
2018-02-20T13:01:43.914Z,20.10
2018-02-20T13:04:11.497Z,19.15
2018-02-20T13:06:38.512Z,20.55
2018-02-20T13:09:04.772Z,18.50
2018-02-20T13:11:31.388Z,17.08
2018-02-20T13:13:57.988Z,43.67
2018-02-20T13:16:24.186Z,19.20
2018-02-20T13:18:50.425Z,48.55
2018-02-20T13:21:17.634Z,23.67
2018-02-20T13:23:44.905Z,17.67
2018-02-20T13:26:11.170Z,19.42
2018-02-20T13:28:37.389Z,17.25
2018-02-20T13:31:03.612Z,18.17
2018-02-20T13:33:29.836Z,16.92
2018-02-20T13:35:56.166Z,18.67
2018-02-20T13:38:22.493Z,16.05
2018-02-20T13:40:52.764Z,17.48
2018-02-20T13:43:19.040Z,22.55
2018-02-20T13:45:45.284Z,22.37
2018-02-20T13:48:11.653Z,19.05
2018-02-20T13:50:38.237Z,19.45
2018-02-20T13:53:04.617Z,17.85
2018-02-20T13:55:30.961Z,19.70
2018-02-20T13:57:57.238Z,29.77
2018-02-20T14:00:23.463Z,18.33
2018-02-20T14:02:49.979Z,37.28
2018-02-20T14:05:16.263Z,39.40
2018-02-20T14:07:42.486Z,25.30
2018-02-20T14:10:09.061Z,44.65
2018-02-20T14:12:35.657Z,25.30
2018-02-20T14:15:01.936Z,27.13
2018-02-20T14:17:28.215Z,28.02
2018-02-20T14:19:54.492Z,34.10
2018-02-20T14:22:20.890Z,24.48
2018-02-20T14:24:47.346Z,39.85
2018-02-20T14:27:13.679Z,28.35
2018-02-20T14:29:40.695Z,37.80
2018-02-20T14:32:07.092Z,23.15
2018-02-20T14:34:33.414Z,33.53
2018-02-20T14:36:59.921Z,20.17
2018-02-20T14:39:26.253Z,19.62
2018-02-20T14:41:52.847Z,20.88
2018-02-20T14:44:19.073Z,23.30
2018-02-20T14:46:45.328Z,39.83
2018-02-20T14:49:11.583Z,21.85
2018-02-20T14:51:37.805Z,20.42
2018-02-20T14:54:04.023Z,22.48
2018-02-20T14:56:30.643Z,30.75
2018-02-20T14:58:56.902Z,26.42
2018-02-20T15:01:23.495Z,24.65
2018-02-20T15:03:49.721Z,27.75
2018-02-20T15:06:15.996Z,29.63
2018-02-20T15:08:42.653Z,26.45
2018-02-20T15:11:08.966Z,32.30
2018-02-20T15:13:35.185Z,24.85
2018-02-20T15:16:01.417Z,23.60
2018-02-20T15:18:28.033Z,27.30
2018-02-20T15:20:54.285Z,25.52
2018-02-20T15:23:20.905Z,23.48
2018-02-20T15:25:47.803Z,22.13
2018-02-20T15:28:14.007Z,22.92
2018-02-20T15:30:40.809Z,22.62
2018-02-20T15:33:07.059Z,22.85
2018-02-20T15:35:33.336Z,22.27
2018-02-20T15:37:59.604Z,28.77
2018-02-20T15:40:25.815Z,23.73
2018-02-20T15:42:52.054Z,24.55
2018-02-20T15:45:22.271Z,25.00
2018-02-20T15:47:48.470Z,25.88
2018-02-20T15:50:14.698Z,25.37
2018-02-20T15:52:40.942Z,25.75
2018-02-20T15:55:07.208Z,26.75
2018-02-20T15:57:33.448Z,27.15
2018-02-20T15:59:59.716Z,27.10
2018-02-20T16:02:25.970Z,29.30
2018-02-20T16:04:52.807Z,28.80
2018-02-20T16:07:18.965Z,29.90
2018-02-20T16:09:45.197Z,31.02
2018-02-20T16:12:11.490Z,36.55
2018-02-20T16:14:37.780Z,33.10
2018-02-20T16:17:04.795Z,33.97
2018-02-20T16:19:31.417Z,31.35
2018-02-20T16:21:57.679Z,34.03
2018-02-20T16:24:24.000Z,32.67
2018-02-20T16:26:50.213Z,35.03
2018-02-20T16:29:16.828Z,35.50
2018-02-20T16:31:43.108Z,34.40
2018-02-20T16:34:10.384Z,33.60
2018-02-20T16:36:36.660Z,36.40
2018-02-20T16:39:03.308Z,34.85
2018-02-20T16:41:29.542Z,35.63
2018-02-20T16:43:55.844Z,31.50
2018-02-20T16:46:22.072Z,37.53
2018-02-20T16:48:48.345Z,35.05
2018-02-20T16:51:14.571Z,34.60
2018-02-20T16:53:40.770Z,34.45
2018-02-20T16:56:06.993Z,33.67
2018-02-20T16:58:33.627Z,34.95
2018-02-20T17:00:59.907Z,34.30
2018-02-20T17:03:26.123Z,38.17
2018-02-20T17:05:52.378Z,48.45
2018-02-20T17:08:18.592Z,39.38
2018-02-20T17:10:44.815Z,36.25
2018-02-20T17:13:11.975Z,35.33
2018-02-20T17:15:38.172Z,33.15
2018-02-20T17:18:04.465Z,36.38
2018-02-20T17:20:30.762Z,34.25
2018-02-20T17:22:57.074Z,33.78
2018-02-20T17:25:23.680Z,34.78
2018-02-20T17:27:50.279Z,34.83
2018-02-20T17:30:16.538Z,31.98
2018-02-20T17:32:43.187Z,34.97
2018-02-20T17:35:09.899Z,34.25
2018-02-20T17:37:36.155Z,32.65
2018-02-20T17:40:02.445Z,33.60
2018-02-20T17:42:28.659Z,32.22
2018-02-20T17:44:54.918Z,33.92
2018-02-20T17:47:21.177Z,33.47
2018-02-20T17:49:47.403Z,32.17
2018-02-20T17:52:13.637Z,33.70
2018-02-20T17:54:40.560Z,31.60
2018-02-20T17:57:06.766Z,34.80
2018-02-20T17:59:32.990Z,31.37
2018-02-20T18:01:59.249Z,31.70
2018-02-20T18:04:25.846Z,34.63
2018-02-20T18:06:52.067Z,33.83
2018-02-20T18:09:18.295Z,35.33
2018-02-20T18:11:44.516Z,36.15
2018-02-20T18:14:10.896Z,31.70
2018-02-20T18:16:37.080Z,31.67
2018-02-20T18:19:03.283Z,30.73
2018-02-20T18:21:29.967Z,31.48
2018-02-20T18:23:57.548Z,33.90
2018-02-20T18:26:23.782Z,34.60
2018-02-20T18:28:50.078Z,30.80
2018-02-20T18:31:16.276Z,29.85
2018-02-20T18:33:42.495Z,29.90
2018-02-20T18:36:08.800Z,32.13
2018-02-20T18:38:35.026Z,33.25
2018-02-20T18:41:01.671Z,42.70
2018-02-20T18:43:27.939Z,37.15
2018-02-20T18:45:54.171Z,44.15
2018-02-20T18:48:20.410Z,44.58
2018-02-20T18:50:49.059Z,44.95
2018-02-20T18:53:15.343Z,40.38
2018-02-20T18:55:41.611Z,41.47
2018-02-20T18:58:07.883Z,36.70
2018-02-20T19:00:34.138Z,35.03
2018-02-20T19:03:00.783Z,45.88
2018-02-20T19:05:27.388Z,40.53
2018-02-20T19:07:54.024Z,35.95
2018-02-20T19:10:20.323Z,32.72
2018-02-20T19:12:46.616Z,35.00
2018-02-20T19:15:14.272Z,36.13
2018-02-20T19:17:40.871Z,42.58
2018-02-20T19:20:07.163Z,38.40
2018-02-20T19:22:33.478Z,35.78
2018-02-20T19:24:59.713Z,33.00
2018-02-20T19:27:25.966Z,32.03
2018-02-20T19:29:54.717Z,33.63
2018-02-20T19:32:21.358Z,32.45
2018-02-20T19:34:48.031Z,35.63
2018-02-20T19:37:14.401Z,31.77
2018-02-20T19:39:41.388Z,34.78
2018-02-20T19:42:07.577Z,34.63
2018-02-20T19:44:34.444Z,36.28
2018-02-20T19:47:07.812Z,35.70
2018-02-20T19:49:34.095Z,36.33
2018-02-20T19:52:00.499Z,35.40
2018-02-20T19:54:27.771Z,36.72
2018-02-20T19:56:54.041Z,32.63
2018-02-20T19:59:20.927Z,34.83
2018-02-20T20:01:47.237Z,33.90
2018-02-20T20:04:13.525Z,33.75
2018-02-20T20:06:39.801Z,37.15
2018-02-20T20:09:06.441Z,34.63
2018-02-20T20:11:33.130Z,35.88
2018-02-20T20:13:59.372Z,37.40
2018-02-20T20:16:25.620Z,34.95
2018-02-20T20:18:51.921Z,34.25
2018-02-20T20:21:19.099Z,34.10
2018-02-20T20:23:45.415Z,33.33
2018-02-20T20:26:11.642Z,35.53
2018-02-20T20:28:37.883Z,32.85
2018-02-20T20:31:04.192Z,33.63
2018-02-20T20:33:30.445Z,33.83
2018-02-20T20:35:56.676Z,32.13
2018-02-20T20:38:23.012Z,32.72
2018-02-20T20:40:49.799Z,31.40
2018-02-20T20:43:16.112Z,29.87
2018-02-20T20:45:42.420Z,32.60
2018-02-20T20:48:08.720Z,31.83
2018-02-20T20:50:36.053Z,34.00
2018-02-20T20:53:04.237Z,31.35
2018-02-20T20:55:30.539Z,32.40
2018-02-20T20:57:56.791Z,31.45
2018-02-20T21:00:23.064Z,32.28
2018-02-20T21:02:49.692Z,30.75
2018-02-20T21:05:15.912Z,33.42
2018-02-20T21:07:42.194Z,31.55
2018-02-20T21:10:08.416Z,31.25
2018-02-20T21:12:34.718Z,31.58
2018-02-20T21:15:01.327Z,30.15
2018-02-20T21:17:27.532Z,32.25
2018-02-20T21:19:53.767Z,31.62
2018-02-20T21:22:20.038Z,32.63
2018-02-20T21:24:46.690Z,33.88
2018-02-20T21:27:12.915Z,31.92
2018-02-20T21:29:39.205Z,32.55
2018-02-20T21:32:05.429Z,33.33
2018-02-20T21:34:31.662Z,34.97
2018-02-20T21:36:58.166Z,36.60
2018-02-20T21:39:24.350Z,35.70
2018-02-20T21:41:50.627Z,34.35
2018-02-20T21:44:16.958Z,34.58
2018-02-20T21:46:43.170Z,34.35
2018-02-20T21:49:09.444Z,33.83
2018-02-20T21:51:35.667Z,34.45
2018-02-20T21:54:01.939Z,31.10
2018-02-20T21:56:28.205Z,30.12
2018-02-20T21:58:54.421Z,31.70
2018-02-20T22:01:20.956Z,30.60
2018-02-20T22:03:47.237Z,31.83
2018-02-20T22:06:13.935Z,30.00
2018-02-20T22:08:40.189Z,31.05
2018-02-20T22:11:06.449Z,30.80
2018-02-20T22:13:32.635Z,30.48
2018-02-20T22:15:58.946Z,32.25
2018-02-20T22:18:25.234Z,34.20
2018-02-20T22:20:51.501Z,33.55
2018-02-20T22:23:17.820Z,32.47
2018-02-20T22:25:44.096Z,37.35
2018-02-20T22:28:10.425Z,34.20
2018-02-20T22:30:37.090Z,34.10
2018-02-20T22:33:03.316Z,33.20
2018-02-20T22:35:29.898Z,33.17
2018-02-20T22:37:56.140Z,32.83
2018-02-20T22:40:22.348Z,31.42
2018-02-20T22:42:48.748Z,30.73
2018-02-20T22:45:14.976Z,32.97
2018-02-20T22:47:41.229Z,32.53
2018-02-20T22:50:07.455Z,31.48
2018-02-20T22:52:33.765Z,31.33
2018-02-20T22:55:00.070Z,32.55
2018-02-20T22:57:26.390Z,32.17
2018-02-20T22:59:52.636Z,31.45
2018-02-20T23:02:19.250Z,32.33
2018-02-20T23:04:45.575Z,33.75
2018-02-20T23:07:11.781Z,32.45
2018-02-20T23:09:38.038Z,31.83
2018-02-20T23:12:04.313Z,30.75
2018-02-20T23:14:30.538Z,31.62
2018-02-20T23:16:56.788Z,30.27
2018-02-20T23:19:23.167Z,29.00
2018-02-20T23:21:49.484Z,31.00
2018-02-20T23:24:15.823Z,31.40
2018-02-20T23:26:42.084Z,30.92
2018-02-20T23:29:08.379Z,30.50
2018-02-20T23:31:34.585Z,32.15
2018-02-20T23:34:00.829Z,31.00
2018-02-20T23:36:27.022Z,30.45
2018-02-20T23:38:53.295Z,31.33
2018-02-20T23:41:19.559Z,32.28
2018-02-20T23:43:45.948Z,32.85
2018-02-20T23:46:12.216Z,29.48
2018-02-20T23:48:38.505Z,32.78
2018-02-20T23:51:10.683Z,31.50
2018-02-20T23:53:36.911Z,30.70
2018-02-20T23:56:03.190Z,31.85
2018-02-20T23:58:29.377Z,30.25
